createdAt,value
2023-01-22T00:01:23.044Z,80.89
2023-01-22T00:03:53.294Z,81.32
2023-01-22T00:06:23.587Z,81.14
2023-01-22T00:08:54.359Z,80.72
2023-01-22T00:11:24.108Z,80.65
2023-01-22T00:13:52.440Z,80.44
2023-01-22T00:16:20.724Z,80.73
2023-01-22T00:18:49.044Z,80.27
2023-01-22T00:21:17.975Z,80.63
2023-01-22T00:23:46.435Z,80.34
2023-01-22T00:26:17.059Z,80.01
2023-01-22T00:28:48.102Z,79.85
2023-01-22T00:31:17.943Z,79.51
2023-01-22T00:33:47.930Z,79.71
2023-01-22T00:36:19.364Z,79.27
2023-01-22T00:38:49.867Z,79.22
2023-01-22T00:41:20.063Z,78.94
2023-01-22T00:43:52.585Z,79.33
2023-01-22T00:46:21.782Z,79.27
2023-01-22T00:48:51.088Z,78.92
2023-01-22T00:51:20.009Z,79.09
2023-01-22T00:53:48.411Z,79.17
2023-01-22T00:56:18.058Z,79.43
2023-01-22T00:58:46.615Z,78.97
2023-01-22T01:01:17.258Z,79.12
2023-01-22T01:03:45.838Z,79.20
2023-01-22T01:06:17.346Z,79.85
2023-01-22T01:08:48.297Z,80.01
2023-01-22T01:11:19.414Z,79.55
2023-01-22T01:13:47.732Z,79.02
2023-01-22T01:16:20.697Z,79.38
2023-01-22T01:18:49.525Z,79.22
2023-01-22T01:21:19.337Z,79.00
2023-01-22T01:23:48.067Z,79.28
2023-01-22T01:26:18.783Z,78.71
2023-01-22T01:28:47.722Z,78.76
2023-01-22T01:31:18.481Z,78.72
2023-01-22T01:33:48.141Z,78.97
2023-01-22T01:36:30.736Z,78.28
2023-01-22T01:39:06.955Z,78.05
2023-01-22T01:41:35.257Z,77.93
2023-01-22T01:44:12.951Z,77.50
2023-01-22T01:46:48.433Z,77.45
2023-01-22T01:49:24.576Z,76.85
2023-01-22T01:51:55.441Z,76.75
2023-01-22T01:54:23.881Z,76.58
2023-01-22T01:56:58.580Z,76.80
2023-01-22T01:59:27.199Z,76.85
2023-01-22T02:01:56.939Z,76.38
2023-01-22T02:04:25.939Z,76.54
2023-01-22T02:06:55.274Z,76.34
2023-01-22T02:09:23.757Z,75.72
2023-01-22T02:11:53.285Z,75.68
2023-01-22T02:14:27.414Z,75.21
2023-01-22T02:17:07.510Z,75.37
2023-01-22T02:19:36.043Z,75.22
2023-01-22T02:22:13.174Z,75.26
2023-01-22T02:24:41.798Z,75.16
2023-01-22T02:27:11.062Z,74.71
2023-01-22T02:29:39.826Z,74.77
2023-01-22T02:32:10.844Z,74.72
2023-01-22T02:34:39.603Z,74.41
2023-01-22T02:37:09.895Z,74.24
2023-01-22T02:39:38.293Z,74.13
2023-01-22T02:42:09.968Z,74.37
2023-01-22T02:44:39.613Z,74.04
2023-01-22T02:47:07.960Z,73.89
2023-01-22T02:49:36.400Z,73.69
2023-01-22T02:52:04.941Z,73.98
2023-01-22T02:54:35.034Z,73.77
2023-01-22T02:57:03.502Z,73.96
2023-01-22T02:59:31.892Z,74.12
2023-01-22T03:02:02.287Z,73.78
2023-01-22T03:04:30.936Z,73.71
2023-01-22T03:06:59.204Z,73.52
2023-01-22T03:09:29.993Z,73.24
2023-01-22T03:12:00.789Z,73.13
2023-01-22T03:14:50.187Z,73.06
2023-01-22T03:17:37.153Z,73.23
2023-01-22T03:20:23.962Z,72.87
2023-01-22T03:22:52.273Z,72.94
2023-01-22T03:25:21.139Z,72.92
2023-01-22T03:28:16.575Z,72.76
2023-01-22T03:30:49.590Z,72.94
2023-01-22T03:33:18.113Z,72.92
2023-01-22T03:35:50.172Z,72.90
2023-01-22T03:38:21.620Z,72.96
2023-01-22T03:40:50.009Z,73.04
2023-01-22T03:43:19.762Z,72.98
2023-01-22T03:45:48.288Z,73.01
2023-01-22T03:48:20.649Z,73.21
2023-01-22T03:50:49.437Z,72.91
2023-01-22T03:53:17.736Z,73.02
2023-01-22T03:55:46.162Z,73.08
2023-01-22T03:58:14.596Z,73.03
2023-01-22T04:00:44.346Z,73.00
2023-01-22T04:03:13.805Z,72.92
2023-01-22T04:05:42.501Z,72.80
2023-01-22T04:08:10.878Z,73.24
2023-01-22T04:10:44.303Z,73.35
2023-01-22T04:13:12.777Z,72.92
2023-01-22T04:15:46.446Z,72.50
2023-01-22T04:18:34.810Z,72.40
2023-01-22T04:21:16.850Z,72.75
2023-01-22T04:23:53.569Z,72.64
2023-01-22T04:26:22.295Z,72.30
2023-01-22T04:28:50.933Z,72.10
2023-01-22T04:31:23.844Z,72.54
2023-01-22T04:34:14.293Z,72.44
2023-01-22T04:36:47.057Z,72.21
2023-01-22T04:39:15.411Z,72.48
2023-01-22T04:41:43.825Z,72.13
2023-01-22T04:44:12.740Z,72.13
2023-01-22T04:46:44.207Z,72.25
2023-01-22T04:49:14.539Z,72.17
2023-01-22T04:51:45.224Z,71.91
2023-01-22T04:54:14.217Z,72.00
2023-01-22T04:56:42.582Z,71.75
2023-01-22T04:59:12.023Z,72.00
2023-01-22T05:01:40.463Z,72.30
2023-01-22T05:04:10.321Z,72.01
2023-01-22T05:06:38.717Z,72.12
2023-01-22T05:09:07.095Z,71.53
2023-01-22T05:11:49.970Z,71.88
2023-01-22T05:14:19.268Z,71.92
2023-01-22T05:16:50.149Z,71.56
2023-01-22T05:19:19.961Z,71.89
2023-01-22T05:21:49.456Z,72.02
2023-01-22T05:24:19.680Z,71.47
2023-01-22T05:26:48.193Z,71.61
2023-01-22T05:29:25.599Z,71.72
2023-01-22T05:32:08.365Z,71.93
2023-01-22T05:34:43.989Z,71.91
2023-01-22T05:37:13.416Z,71.94
2023-01-22T05:39:41.938Z,71.93
2023-01-22T05:42:15.922Z,71.88
2023-01-22T05:44:46.585Z,71.92
2023-01-22T05:47:16.288Z,72.04
2023-01-22T05:50:07.546Z,71.61
2023-01-22T05:52:37.180Z,71.84
2023-01-22T05:55:06.619Z,72.10
2023-01-22T05:57:42.150Z,71.90
2023-01-22T06:00:13.591Z,72.00
2023-01-22T06:02:57.478Z,72.36
2023-01-22T06:05:27.532Z,72.29
2023-01-22T06:08:03.212Z,72.73
2023-01-22T06:10:38.899Z,72.29
2023-01-22T06:13:07.500Z,72.31
2023-01-22T06:15:35.957Z,72.17
2023-01-22T06:18:17.887Z,72.14
2023-01-22T06:20:47.825Z,72.79
2023-01-22T06:23:16.253Z,72.67
2023-01-22T06:25:44.790Z,72.49
2023-01-22T06:28:18.512Z,72.53
2023-01-22T06:30:47.518Z,72.68
2023-01-22T06:33:16.501Z,73.23
2023-01-22T06:35:44.930Z,72.97
2023-01-22T06:38:14.744Z,73.11
2023-01-22T06:40:43.374Z,73.39
2023-01-22T06:43:11.879Z,73.40
2023-01-22T06:45:40.459Z,73.68
2023-01-22T06:48:10.976Z,73.29
2023-01-22T06:50:39.721Z,73.56
2023-01-22T06:53:08.244Z,74.03
2023-01-22T06:55:39.525Z,73.89
2023-01-22T06:58:08.155Z,74.27
2023-01-22T07:00:36.609Z,74.08
2023-01-22T07:03:08.348Z,74.64
2023-01-22T07:05:36.875Z,74.85
2023-01-22T07:08:05.869Z,74.87
2023-01-22T07:10:34.263Z,75.06
2023-01-22T07:13:04.322Z,75.00
2023-01-22T07:15:33.619Z,74.31
2023-01-22T07:18:02.008Z,74.54
2023-01-22T07:20:30.381Z,74.80
2023-01-22T07:23:00.235Z,75.04
2023-01-22T07:25:28.983Z,74.48
2023-01-22T07:28:00.912Z,74.87
2023-01-22T07:30:32.657Z,74.85
2023-01-22T07:33:02.156Z,74.96
2023-01-22T07:35:31.571Z,74.78
2023-01-22T07:38:00.825Z,74.64
2023-01-22T07:40:29.676Z,74.53
2023-01-22T07:42:58.191Z,74.31
2023-01-22T07:45:27.221Z,74.46
2023-01-22T07:47:59.744Z,74.33
2023-01-22T07:50:30.967Z,74.23
2023-01-22T07:53:01.597Z,74.32
2023-01-22T07:55:31.325Z,74.43
2023-01-22T07:58:00.825Z,74.49
2023-01-22T08:00:29.321Z,74.12
2023-01-22T08:02:59.080Z,74.43
2023-01-22T08:05:27.520Z,74.50
2023-01-22T08:07:55.873Z,74.15
2023-01-22T08:10:24.246Z,74.48
2023-01-22T08:12:54.930Z,73.93
2023-01-22T08:15:23.551Z,74.32
2023-01-22T08:17:52.266Z,74.31
2023-01-22T08:20:22.933Z,74.08
2023-01-22T08:22:51.349Z,74.54
2023-01-22T08:25:19.653Z,74.17
2023-01-22T08:27:48.040Z,73.87
2023-01-22T08:30:16.963Z,74.21
2023-01-22T08:32:46.602Z,74.06
2023-01-22T08:35:15.415Z,74.06
2023-01-22T08:37:45.139Z,73.98
2023-01-22T08:40:14.300Z,74.36
2023-01-22T08:42:42.946Z,74.30
2023-01-22T08:45:12.307Z,74.25
2023-01-22T08:47:40.647Z,74.55
2023-01-22T08:50:10.486Z,74.51
2023-01-22T08:52:39.272Z,74.56
2023-01-22T08:55:10.922Z,74.93
2023-01-22T08:57:39.286Z,75.06
2023-01-22T09:00:11.318Z,74.65
2023-01-22T09:02:39.675Z,74.83
2023-01-22T09:05:09.545Z,75.01
2023-01-22T09:07:37.964Z,74.81
2023-01-22T09:10:12.604Z,74.69
2023-01-22T09:12:41.393Z,74.61
2023-01-22T09:15:10.883Z,74.81
2023-01-22T09:17:39.601Z,74.61
2023-01-22T09:20:08.807Z,74.58
2023-01-22T09:22:37.315Z,74.45
2023-01-22T09:25:06.734Z,74.96
2023-01-22T09:27:36.558Z,74.55
2023-01-22T09:30:06.455Z,75.03
2023-01-22T09:32:34.783Z,74.64
2023-01-22T09:35:03.230Z,74.56
2023-01-22T09:37:31.898Z,74.82
2023-01-22T09:40:00.307Z,74.87
2023-01-22T09:42:35.252Z,74.90
2023-01-22T09:45:14.441Z,74.92
2023-01-22T09:47:47.551Z,74.59
2023-01-22T09:50:22.455Z,74.69
2023-01-22T09:52:53.499Z,73.98
2023-01-22T09:55:25.642Z,74.32
2023-01-22T09:57:57.852Z,74.39
2023-01-22T10:00:36.806Z,74.66
2023-01-22T10:03:11.691Z,74.21
2023-01-22T10:05:43.957Z,73.85
2023-01-22T10:08:19.784Z,73.81
2023-01-22T10:10:48.423Z,74.01
2023-01-22T10:13:21.633Z,73.71
2023-01-22T10:15:52.788Z,73.79
2023-01-22T10:18:34.870Z,74.22
2023-01-22T10:21:07.355Z,73.88
2023-01-22T10:23:36.234Z,73.85
2023-01-22T10:26:15.235Z,73.80
2023-01-22T10:28:49.640Z,73.99
2023-01-22T10:31:29.819Z,74.19
2023-01-22T10:34:00.469Z,74.03
2023-01-22T10:36:29.334Z,74.00
2023-01-22T10:39:12.115Z,74.37
2023-01-22T10:41:41.056Z,74.16
2023-01-22T10:44:19.464Z,74.16
2023-01-22T10:46:49.725Z,74.19
2023-01-22T10:49:21.696Z,74.29
2023-01-22T10:51:56.039Z,74.54
2023-01-22T10:54:31.141Z,73.90
2023-01-22T10:57:17.914Z,73.90
2023-01-22T10:59:54.843Z,73.83
2023-01-22T11:02:26.914Z,73.70
2023-01-22T11:04:55.453Z,73.86
2023-01-22T11:07:32.516Z,74.12
2023-01-22T11:10:11.406Z,74.16
2023-01-22T11:12:43.550Z,74.29
2023-01-22T11:15:24.998Z,74.15
2023-01-22T11:17:55.959Z,73.83
2023-01-22T11:20:29.564Z,73.60
2023-01-22T11:23:19.888Z,73.56
2023-01-22T11:25:57.241Z,73.54
2023-01-22T11:28:41.759Z,73.22
2023-01-22T11:31:42.525Z,73.20
2023-01-22T11:34:24.362Z,73.72
2023-01-22T11:37:02.287Z,73.97
2023-01-22T11:39:53.594Z,73.92
2023-01-22T11:42:38.366Z,74.09
2023-01-22T11:45:33.429Z,73.68
2023-01-22T11:48:20.850Z,73.69
2023-01-22T11:50:56.321Z,73.42
2023-01-22T11:53:58.870Z,73.67
2023-01-22T11:56:46.239Z,73.49
2023-01-22T11:59:32.291Z,73.38
2023-01-22T12:02:23.760Z,73.18
2023-01-22T12:05:13.303Z,73.09
2023-01-22T12:07:55.919Z,73.10
2023-01-22T12:10:59.888Z,72.94
2023-01-22T12:13:51.433Z,72.92
2023-01-22T12:16:29.514Z,72.95
2023-01-22T12:19:37.534Z,73.17
2023-01-22T12:22:15.178Z,72.87
2023-01-22T12:24:49.741Z,73.19
2023-01-22T12:27:26.257Z,72.84
2023-01-22T12:30:01.670Z,72.84
2023-01-22T12:32:31.869Z,72.79
2023-01-22T12:35:06.503Z,72.48
2023-01-22T12:37:42.524Z,73.20
2023-01-22T12:40:33.860Z,73.72
2023-01-22T12:43:04.936Z,73.58
2023-01-22T12:45:44.399Z,73.56
2023-01-22T12:48:25.651Z,73.51
2023-01-22T12:50:56.086Z,73.47
2023-01-22T12:53:29.024Z,73.45
2023-01-22T12:56:03.740Z,73.30
2023-01-22T12:58:34.666Z,73.61
2023-01-22T13:01:08.605Z,73.97
2023-01-22T13:03:37.536Z,74.05
2023-01-22T13:06:20.425Z,73.46
2023-01-22T13:08:50.331Z,73.75
2023-01-22T13:11:32.226Z,73.97
2023-01-22T13:14:19.491Z,73.82
2023-01-22T13:16:56.080Z,73.88
2023-01-22T13:19:28.995Z,74.12
2023-01-22T13:22:00.822Z,74.50
2023-01-22T13:24:30.844Z,74.27
2023-01-22T13:27:02.233Z,74.53
2023-01-22T13:29:34.125Z,74.10
2023-01-22T13:32:05.681Z,74.07
2023-01-22T13:34:34.332Z,74.38
2023-01-22T13:37:02.714Z,74.59
2023-01-22T13:39:34.480Z,74.25
2023-01-22T13:42:06.053Z,74.75
2023-01-22T13:44:37.527Z,74.63
2023-01-22T13:47:06.821Z,74.60
2023-01-22T13:49:43.184Z,74.35
2023-01-22T13:52:21.533Z,74.33
2023-01-22T13:55:01.582Z,74.52
2023-01-22T13:57:30.197Z,74.47
2023-01-22T14:00:01.340Z,74.55
2023-01-22T14:02:33.677Z,74.54
2023-01-22T14:05:02.745Z,74.58
2023-01-22T14:07:33.685Z,74.92
2023-01-22T14:10:20.134Z,75.19
2023-01-22T14:13:00.926Z,75.05
2023-01-22T14:15:33.485Z,75.08
2023-01-22T14:18:10.766Z,74.85
2023-01-22T14:20:41.479Z,74.78
2023-01-22T14:23:09.990Z,75.14
2023-01-22T14:25:41.225Z,74.75
2023-01-22T14:28:10.391Z,75.14
2023-01-22T14:30:39.463Z,75.22
2023-01-22T14:33:08.257Z,75.14
2023-01-22T14:35:36.834Z,74.79
2023-01-22T14:38:05.651Z,74.97
2023-01-22T14:40:34.804Z,74.93
2023-01-22T14:43:05.160Z,74.69
2023-01-22T14:45:33.830Z,74.82
2023-01-22T14:48:04.350Z,74.73
2023-01-22T14:50:32.738Z,74.58
2023-01-22T14:53:01.386Z,74.31
2023-01-22T14:55:30.335Z,74.99
2023-01-22T14:57:58.761Z,74.76
2023-01-22T15:00:29.434Z,75.26
2023-01-22T15:02:59.109Z,75.20
2023-01-22T15:05:28.435Z,75.39
2023-01-22T15:07:57.115Z,75.44
2023-01-22T15:10:25.628Z,75.91
2023-01-22T15:12:54.637Z,75.71
2023-01-22T15:15:27.015Z,75.80
2023-01-22T15:17:58.047Z,76.22
2023-01-22T15:20:27.379Z,76.39
2023-01-22T15:22:55.860Z,76.27
2023-01-22T15:25:24.252Z,76.40
2023-01-22T15:27:53.006Z,76.40
2023-01-22T15:30:22.137Z,76.40
2023-01-22T15:32:50.835Z,76.36
2023-01-22T15:35:20.739Z,76.54
2023-01-22T15:37:49.397Z,76.63
2023-01-22T15:40:18.280Z,76.68
2023-01-22T15:42:47.013Z,77.06
2023-01-22T15:45:15.374Z,77.29
2023-01-22T15:47:43.752Z,77.19
2023-01-22T15:50:20.438Z,77.46
2023-01-22T15:52:54.945Z,76.97
2023-01-22T15:55:23.489Z,77.11
2023-01-22T15:57:51.796Z,77.57
2023-01-22T16:00:21.900Z,77.38
2023-01-22T16:02:50.364Z,77.36
2023-01-22T16:05:20.269Z,77.17
2023-01-22T16:07:52.405Z,77.27
2023-01-22T16:10:21.537Z,76.95
2023-01-22T16:12:50.014Z,77.30
2023-01-22T16:15:18.896Z,77.22
2023-01-22T16:17:48.042Z,77.02
2023-01-22T16:20:17.566Z,77.30
2023-01-22T16:22:46.598Z,77.14
2023-01-22T16:25:16.941Z,76.93
2023-01-22T16:27:45.871Z,76.99
2023-01-22T16:30:15.200Z,77.35
2023-01-22T16:32:46.353Z,77.36
2023-01-22T16:35:14.868Z,77.34
2023-01-22T16:37:45.354Z,77.29
2023-01-22T16:40:18.028Z,77.38
2023-01-22T16:43:00.360Z,77.38
2023-01-22T16:45:29.097Z,77.20
2023-01-22T16:47:57.527Z,77.09
2023-01-22T16:50:25.914Z,77.70
2023-01-22T16:52:54.525Z,77.66
2023-01-22T16:55:24.677Z,77.77
2023-01-22T16:57:53.504Z,77.43
2023-01-22T17:00:22.960Z,77.51
2023-01-22T17:02:54.313Z,77.38
2023-01-22T17:05:22.744Z,77.63
2023-01-22T17:07:51.144Z,77.31
2023-01-22T17:10:19.987Z,77.56
2023-01-22T17:12:49.988Z,77.37
2023-01-22T17:15:19.232Z,77.44
2023-01-22T17:17:47.761Z,77.40
2023-01-22T17:20:16.786Z,77.45
2023-01-22T17:22:45.217Z,77.57
2023-01-22T17:25:14.340Z,77.24
2023-01-22T17:27:42.728Z,77.41
2023-01-22T17:30:14.136Z,77.33
2023-01-22T17:32:42.675Z,77.11
2023-01-22T17:35:11.580Z,77.26
2023-01-22T17:37:40.000Z,76.92
2023-01-22T17:40:10.878Z,76.87
2023-01-22T17:42:39.346Z,76.73
2023-01-22T17:45:10.188Z,76.65
2023-01-22T17:47:45.139Z,76.45
2023-01-22T17:50:14.075Z,76.62
2023-01-22T17:52:42.454Z,76.77
2023-01-22T17:55:11.699Z,76.97
2023-01-22T17:57:41.461Z,77.25
2023-01-22T18:00:12.334Z,76.81
2023-01-22T18:02:42.178Z,76.86
2023-01-22T18:05:11.311Z,76.71
2023-01-22T18:07:39.697Z,76.62
2023-01-22T18:10:09.045Z,76.50
2023-01-22T18:12:37.365Z,76.71
2023-01-22T18:15:07.211Z,76.65
2023-01-22T18:17:36.077Z,76.51
2023-01-22T18:20:09.380Z,76.65
2023-01-22T18:22:37.766Z,76.78
2023-01-22T18:25:07.255Z,76.52
2023-01-22T18:27:35.646Z,76.38
2023-01-22T18:30:04.550Z,76.28
2023-01-22T18:32:35.796Z,76.27
2023-01-22T18:35:07.053Z,76.55
2023-01-22T18:37:37.471Z,76.45
2023-01-22T18:40:08.208Z,76.62
2023-01-22T18:42:36.694Z,76.79
2023-01-22T18:45:10.173Z,76.67
2023-01-22T18:47:38.547Z,76.60
2023-01-22T18:50:12.268Z,76.99
2023-01-22T18:52:40.795Z,76.88
2023-01-22T18:55:10.491Z,76.84
2023-01-22T18:57:42.149Z,77.03
2023-01-22T19:00:38.700Z,76.85
2023-01-22T19:03:07.977Z,76.72
2023-01-22T19:05:41.204Z,76.97
2023-01-22T19:08:09.771Z,77.03
2023-01-22T19:10:38.179Z,77.45
2023-01-22T19:13:06.598Z,77.57
2023-01-22T19:15:35.448Z,77.88
2023-01-22T19:18:03.895Z,77.45
2023-01-22T19:20:32.256Z,78.08
2023-01-22T19:23:02.131Z,78.34
2023-01-22T19:25:31.001Z,78.09
2023-01-22T19:28:00.029Z,78.22
2023-01-22T19:30:28.515Z,78.45
2023-01-22T19:32:57.315Z,78.81
2023-01-22T19:35:25.654Z,79.04
2023-01-22T19:37:55.605Z,79.27
2023-01-22T19:40:25.424Z,79.26
2023-01-22T19:42:54.646Z,79.51
2023-01-22T19:45:22.988Z,80.07
2023-01-22T19:47:51.325Z,80.18
2023-01-22T19:50:19.960Z,80.20
2023-01-22T19:52:48.607Z,80.48
2023-01-22T19:55:19.893Z,80.76
2023-01-22T19:57:49.830Z,81.13
2023-01-22T20:00:19.574Z,81.23
2023-01-22T20:02:48.422Z,81.42
2023-01-22T20:05:18.544Z,81.84
2023-01-22T20:07:47.489Z,81.74
2023-01-22T20:10:18.994Z,82.31
2023-01-22T20:12:52.339Z,82.52
2023-01-22T20:15:21.111Z,82.52
2023-01-22T20:17:50.223Z,82.57
2023-01-22T20:20:19.165Z,82.81
2023-01-22T20:22:48.702Z,82.77
2023-01-22T20:25:18.514Z,83.17
2023-01-22T20:27:48.783Z,83.20
2023-01-22T20:30:20.209Z,83.20
2023-01-22T20:32:48.734Z,83.45
2023-01-22T20:35:18.717Z,83.69
2023-01-22T20:37:47.538Z,83.57
2023-01-22T20:40:16.268Z,83.38
2023-01-22T20:42:44.667Z,83.35
2023-01-22T20:45:13.035Z,83.30
2023-01-22T20:47:42.851Z,83.45
2023-01-22T20:50:12.831Z,83.15
2023-01-22T20:52:41.299Z,83.68
2023-01-22T20:55:13.659Z,83.96
2023-01-22T20:57:42.696Z,83.70
2023-01-22T21:00:13.064Z,83.54
2023-01-22T21:02:42.940Z,83.44
2023-01-22T21:05:11.398Z,83.31
2023-01-22T21:07:39.832Z,83.30
2023-01-22T21:10:13.400Z,83.22
2023-01-22T21:12:42.495Z,83.80
2023-01-22T21:15:11.573Z,83.58
2023-01-22T21:17:40.190Z,83.71
2023-01-22T21:20:12.603Z,83.63
2023-01-22T21:22:42.319Z,83.66
2023-01-22T21:25:11.004Z,83.13
2023-01-22T21:27:39.527Z,83.02
2023-01-22T21:30:10.680Z,83.53
2023-01-22T21:32:39.054Z,83.71
2023-01-22T21:35:10.673Z,83.49
2023-01-22T21:37:39.123Z,83.32
2023-01-22T21:40:12.423Z,83.60
2023-01-22T21:43:09.988Z,83.37
2023-01-22T21:45:59.527Z,83.36
2023-01-22T21:48:28.967Z,83.86
2023-01-22T21:50:58.794Z,83.68
2023-01-22T21:53:27.275Z,83.52
2023-01-22T21:55:55.775Z,83.36
2023-01-22T21:58:24.463Z,83.34
2023-01-22T22:00:54.740Z,83.78
2023-01-22T22:03:23.185Z,83.51
2023-01-22T22:06:02.051Z,83.31
2023-01-22T22:08:31.090Z,83.24
2023-01-22T22:11:00.115Z,83.19
2023-01-22T22:13:28.493Z,83.19
2023-01-22T22:15:56.849Z,83.04
2023-01-22T22:18:25.352Z,82.79
2023-01-22T22:20:53.797Z,83.12
2023-01-22T22:23:23.633Z,82.73
2023-01-22T22:25:52.126Z,82.58
2023-01-22T22:28:20.606Z,82.62
2023-01-22T22:30:49.136Z,82.61
2023-01-22T22:33:18.183Z,82.27
2023-01-22T22:35:48.082Z,82.33
2023-01-22T22:38:16.547Z,82.08
2023-01-22T22:40:46.303Z,82.07
2023-01-22T22:43:15.737Z,82.11
2023-01-22T22:45:44.156Z,82.13
2023-01-22T22:48:12.557Z,82.13
2023-01-22T22:50:43.213Z,81.85
2023-01-22T22:53:11.849Z,81.74
2023-01-22T22:55:42.227Z,81.76
2023-01-22T22:58:11.985Z,82.13
2023-01-22T23:00:41.295Z,81.98
2023-01-22T23:03:10.062Z,81.79
2023-01-22T23:05:38.923Z,81.55
2023-01-22T23:08:07.576Z,81.85
2023-01-22T23:10:38.542Z,81.86
2023-01-22T23:13:07.613Z,81.79
2023-01-22T23:15:37.410Z,81.91
2023-01-22T23:18:05.888Z,82.10
2023-01-22T23:20:36.351Z,82.03
2023-01-22T23:23:04.763Z,81.96
2023-01-22T23:25:33.101Z,82.27
2023-01-22T23:28:01.558Z,82.04
2023-01-22T23:30:30.001Z,82.18
2023-01-22T23:32:59.929Z,82.12
2023-01-22T23:35:28.709Z,82.32
2023-01-22T23:37:57.089Z,82.16
2023-01-22T23:40:25.516Z,82.45
2023-01-22T23:42:53.799Z,82.62
2023-01-22T23:45:22.259Z,82.63
2023-01-22T23:47:52.825Z,82.57
2023-01-22T23:50:22.831Z,82.61
2023-01-22T23:52:51.312Z,82.42
2023-01-22T23:55:19.703Z,82.89
2023-01-22T23:57:48.086Z,82.66
